createdAt,value
2023-04-02T00:01:27.915Z,100.00
2023-04-02T00:04:22.124Z,100.00
2023-04-02T00:06:58.033Z,100.00
2023-04-02T00:09:31.530Z,100.00
2023-04-02T00:12:00.326Z,100.00
2023-04-02T00:14:31.720Z,100.00
2023-04-02T00:17:02.309Z,100.00
2023-04-02T00:19:37.389Z,100.00
2023-04-02T00:22:08.936Z,100.00
2023-04-02T00:24:39.502Z,100.00
2023-04-02T00:27:12.724Z,100.00
2023-04-02T00:29:47.826Z,100.00
2023-04-02T00:32:22.414Z,100.00
2023-04-02T00:34:51.856Z,100.00
2023-04-02T00:37:27.995Z,100.00
2023-04-02T00:40:01.605Z,100.00
2023-04-02T00:42:32.174Z,100.00
2023-04-02T00:45:02.517Z,100.00
2023-04-02T00:47:35.739Z,100.00
2023-04-02T00:50:09.098Z,100.00
2023-04-02T00:52:37.694Z,100.00
2023-04-02T00:55:10.438Z,100.00
2023-04-02T00:57:38.697Z,100.00
2023-04-02T01:00:21.389Z,100.00
2023-04-02T01:03:28.922Z,100.00
2023-04-02T01:06:05.060Z,100.00
2023-04-02T01:08:51.264Z,100.00
2023-04-02T01:11:39.285Z,100.00
2023-04-02T01:14:17.016Z,100.00
2023-04-02T01:16:54.036Z,100.00
2023-04-02T01:19:52.582Z,100.00
2023-04-02T01:22:30.768Z,100.00
2023-04-02T01:24:59.417Z,100.00
2023-04-02T01:27:31.066Z,100.00
2023-04-02T01:30:03.703Z,100.00
2023-04-02T01:32:32.230Z,100.00
2023-04-02T01:35:01.320Z,100.00
2023-04-02T01:37:40.002Z,100.00
2023-04-02T01:40:20.920Z,100.00
2023-04-02T01:42:57.132Z,100.00
2023-04-02T01:45:26.469Z,100.00
2023-04-02T01:47:54.307Z,100.00
2023-04-02T01:50:31.478Z,100.00
2023-04-02T01:53:02.117Z,100.00
2023-04-02T01:55:37.634Z,100.00
2023-04-02T01:58:05.894Z,100.00
2023-04-02T02:00:37.403Z,100.00
2023-04-02T02:03:08.692Z,100.00
2023-04-02T02:05:36.894Z,100.00
2023-04-02T02:08:06.710Z,100.00
2023-04-02T02:10:37.423Z,100.00
2023-04-02T02:13:05.750Z,100.00
2023-04-02T02:15:37.286Z,100.00
2023-04-02T02:18:07.252Z,100.00
2023-04-02T02:20:36.107Z,100.00
2023-04-02T02:23:05.491Z,100.00
2023-04-02T02:25:36.064Z,100.00
2023-04-02T02:28:08.107Z,100.00
2023-04-02T02:30:40.063Z,100.00
2023-04-02T02:33:16.317Z,100.00
2023-04-02T02:35:49.684Z,100.00
2023-04-02T02:38:32.873Z,100.00
2023-04-02T02:41:06.282Z,100.00
2023-04-02T02:43:35.103Z,100.00
2023-04-02T02:46:06.772Z,100.00
2023-04-02T02:48:38.382Z,100.00
2023-04-02T02:51:10.978Z,100.00
2023-04-02T02:53:47.595Z,100.00
2023-04-02T02:56:15.842Z,100.00
2023-04-02T02:58:43.967Z,100.00
2023-04-02T03:01:13.293Z,100.00
2023-04-02T03:03:41.593Z,100.00
2023-04-02T03:06:12.076Z,100.00
2023-04-02T03:08:45.422Z,100.00
2023-04-02T03:11:20.233Z,100.00
2023-04-02T03:13:51.881Z,100.00
2023-04-02T03:16:27.107Z,100.00
2023-04-02T03:18:59.640Z,100.00
2023-04-02T03:21:31.845Z,100.00
2023-04-02T03:24:04.684Z,100.00
2023-04-02T03:26:36.967Z,100.00
2023-04-02T03:29:12.542Z,100.00
2023-04-02T03:31:47.997Z,100.00
2023-04-02T03:34:21.942Z,100.00
2023-04-02T03:36:57.903Z,100.00
2023-04-02T03:39:32.532Z,100.00
2023-04-02T03:42:04.192Z,100.00
2023-04-02T03:44:36.364Z,100.00
2023-04-02T03:47:14.111Z,100.00
2023-04-02T03:49:48.584Z,100.00
2023-04-02T03:52:24.327Z,100.00
2023-04-02T03:54:53.968Z,100.00
2023-04-02T03:57:29.226Z,100.00
2023-04-02T04:00:04.708Z,100.00
2023-04-02T04:02:45.026Z,100.00
2023-04-02T04:05:31.833Z,100.00
2023-04-02T04:08:04.498Z,100.00
2023-04-02T04:10:33.209Z,100.00
2023-04-02T04:13:04.945Z,100.00
2023-04-02T04:15:38.289Z,100.00
2023-04-02T04:18:19.321Z,100.00
2023-04-02T04:20:56.403Z,100.00
2023-04-02T04:23:30.296Z,100.00
2023-04-02T04:26:01.963Z,100.00
2023-04-02T04:28:38.241Z,100.00
2023-04-02T04:31:18.062Z,100.00
2023-04-02T04:33:54.824Z,100.00
2023-04-02T04:36:28.649Z,100.00
2023-04-02T04:39:00.487Z,100.00
2023-04-02T04:41:33.341Z,100.00
2023-04-02T04:44:05.837Z,100.00
2023-04-02T04:46:39.893Z,100.00
2023-04-02T04:49:15.691Z,100.00
2023-04-02T04:51:49.087Z,100.00
2023-04-02T04:54:18.590Z,100.00
2023-04-02T04:56:50.609Z,100.00
2023-04-02T04:59:24.581Z,100.00
2023-04-02T05:01:56.641Z,100.00
2023-04-02T05:04:30.386Z,100.00
2023-04-02T05:07:04.162Z,100.00
2023-04-02T05:09:35.936Z,100.00
2023-04-02T05:12:11.367Z,100.00
2023-04-02T05:14:45.979Z,100.00
2023-04-02T05:17:21.435Z,100.00
2023-04-02T05:19:56.713Z,100.00
2023-04-02T05:22:31.386Z,100.00
2023-04-02T05:25:11.947Z,100.00
2023-04-02T05:27:46.014Z,100.00
2023-04-02T05:30:34.123Z,100.00
2023-04-02T05:33:07.867Z,100.00
2023-04-02T05:35:42.801Z,100.00
2023-04-02T05:38:21.172Z,100.00
2023-04-02T05:40:55.277Z,100.00
2023-04-02T05:43:26.627Z,100.00
2023-04-02T05:45:56.353Z,100.00
2023-04-02T05:48:30.842Z,100.00
2023-04-02T05:51:01.242Z,100.00
2023-04-02T05:53:34.378Z,100.00
2023-04-02T05:56:08.919Z,100.00
2023-04-02T05:58:45.292Z,100.00
2023-04-02T06:01:22.115Z,100.00
2023-04-02T06:04:00.930Z,100.00
2023-04-02T06:06:47.601Z,100.00
2023-04-02T06:09:22.189Z,100.00
2023-04-02T06:11:55.407Z,100.00
2023-04-02T06:14:23.275Z,100.00
2023-04-02T06:16:51.366Z,100.00
2023-04-02T06:19:23.805Z,100.00
2023-04-02T06:22:00.048Z,100.00
2023-04-02T06:24:30.851Z,100.00
2023-04-02T06:27:03.750Z,100.00
2023-04-02T06:29:39.573Z,100.00
2023-04-02T06:32:09.356Z,100.00
2023-04-02T06:34:39.830Z,67.37
2023-04-02T06:37:18.413Z,69.49
2023-04-02T06:39:46.479Z,56.50
2023-04-02T06:42:17.853Z,56.73
2023-04-02T06:44:45.926Z,54.05
2023-04-02T06:47:23.931Z,48.74
2023-04-02T06:49:57.864Z,77.25
2023-04-02T06:52:31.620Z,61.29
2023-04-02T06:55:00.909Z,57.76
2023-04-02T06:57:28.869Z,61.78
2023-04-02T06:59:56.704Z,75.62
2023-04-02T07:02:32.362Z,82.78
2023-04-02T07:05:04.248Z,87.31
2023-04-02T07:07:33.468Z,90.23
2023-04-02T07:10:01.400Z,92.18
2023-04-02T07:12:32.193Z,78.21
2023-04-02T07:15:00.028Z,78.48
2023-04-02T07:17:27.889Z,100.00
2023-04-02T07:19:55.716Z,100.00
2023-04-02T07:22:23.684Z,100.00
2023-04-02T07:24:53.116Z,96.64
2023-04-02T07:27:20.942Z,100.00
2023-04-02T07:29:48.722Z,89.11
2023-04-02T07:32:17.340Z,100.00
2023-04-02T07:34:45.457Z,100.00
2023-04-02T07:37:15.625Z,100.00
2023-04-02T07:39:43.486Z,100.00
2023-04-02T07:42:12.737Z,100.00
2023-04-02T07:44:40.826Z,100.00
2023-04-02T07:47:10.544Z,100.00
2023-04-02T07:49:38.373Z,100.00
2023-04-02T07:52:06.846Z,97.86
2023-04-02T07:54:35.821Z,100.00
2023-04-02T07:57:03.768Z,100.00
2023-04-02T07:59:33.021Z,100.00
2023-04-02T08:02:00.821Z,100.00
2023-04-02T08:04:28.652Z,100.00
2023-04-02T08:06:56.395Z,100.00
2023-04-02T08:09:24.256Z,100.00
2023-04-02T08:11:52.015Z,100.00
2023-04-02T08:14:19.810Z,100.00
2023-04-02T08:16:51.503Z,100.00
2023-04-02T08:19:19.971Z,87.05
2023-04-02T08:21:50.682Z,98.44
2023-04-02T08:24:19.325Z,100.00
2023-04-02T08:26:47.513Z,100.00
2023-04-02T08:29:15.333Z,86.46
2023-04-02T08:31:43.679Z,80.33
2023-04-02T08:34:13.271Z,94.15
2023-04-02T08:36:44.362Z,99.44
2023-04-02T08:39:12.672Z,95.54
2023-04-02T08:41:46.374Z,90.17
2023-04-02T08:44:33.394Z,77.69
2023-04-02T08:47:05.028Z,81.13
2023-04-02T08:49:40.523Z,72.85
2023-04-02T08:52:22.736Z,59.34
2023-04-02T08:54:51.817Z,60.06
2023-04-02T08:57:28.381Z,66.01
2023-04-02T09:00:00.815Z,70.12
2023-04-02T09:02:36.879Z,87.12
2023-04-02T09:05:09.374Z,63.83
2023-04-02T09:07:37.356Z,72.95
2023-04-02T09:10:06.144Z,75.37
2023-04-02T09:12:33.971Z,55.27
2023-04-02T09:15:16.282Z,62.89
2023-04-02T09:17:53.563Z,52.13
2023-04-02T09:20:26.304Z,54.50
2023-04-02T09:22:56.047Z,54.64
2023-04-02T09:25:28.077Z,47.42
2023-04-02T09:27:58.131Z,47.96
2023-04-02T09:30:39.465Z,62.23
2023-04-02T09:33:09.120Z,57.90
2023-04-02T09:35:54.417Z,66.21
2023-04-02T09:38:24.774Z,59.75
2023-04-02T09:40:58.442Z,63.18
2023-04-02T09:43:28.894Z,58.72
2023-04-02T09:46:00.390Z,63.95
2023-04-02T09:48:31.445Z,55.98
2023-04-02T09:51:12.948Z,55.70
2023-04-02T09:53:44.762Z,50.07
2023-04-02T09:56:16.061Z,51.51
2023-04-02T09:58:45.301Z,52.84
2023-04-02T10:01:32.383Z,57.26
2023-04-02T10:04:00.439Z,49.50
2023-04-02T10:06:31.859Z,49.72
2023-04-02T10:08:59.942Z,50.33
2023-04-02T10:11:43.700Z,50.16
2023-04-02T10:14:19.362Z,48.36
2023-04-02T10:16:51.717Z,46.14
2023-04-02T10:19:26.416Z,44.24
2023-04-02T10:21:58.951Z,42.85
2023-04-02T10:24:29.411Z,41.95
2023-04-02T10:27:06.913Z,43.74
2023-04-02T10:29:49.898Z,41.97
2023-04-02T10:32:21.558Z,45.01
2023-04-02T10:34:57.642Z,42.68
2023-04-02T10:37:58.668Z,46.66
2023-04-02T10:40:33.101Z,40.74
2023-04-02T10:43:33.968Z,45.81
2023-04-02T10:46:09.062Z,46.44
2023-04-02T10:48:46.682Z,44.17
2023-04-02T10:51:26.390Z,44.65
2023-04-02T10:54:03.829Z,42.78
2023-04-02T10:56:44.073Z,44.73
2023-04-02T10:59:20.676Z,41.14
2023-04-02T11:01:51.812Z,42.31
2023-04-02T11:04:23.161Z,45.60
2023-04-02T11:07:07.129Z,43.98
2023-04-02T11:09:44.948Z,46.20
2023-04-02T11:12:22.754Z,50.72
2023-04-02T11:14:52.690Z,46.94
2023-04-02T11:17:21.317Z,41.68
2023-04-02T11:19:49.182Z,41.72
2023-04-02T11:22:18.417Z,46.28
2023-04-02T11:24:48.451Z,45.15
2023-04-02T11:27:25.651Z,43.39
2023-04-02T11:29:59.211Z,44.87
2023-04-02T11:32:36.747Z,43.47
2023-04-02T11:35:27.785Z,39.95
2023-04-02T11:37:58.053Z,42.15
2023-04-02T11:40:48.186Z,44.32
2023-04-02T11:44:01.058Z,44.90
2023-04-02T11:46:47.387Z,43.02
2023-04-02T11:49:39.641Z,43.93
2023-04-02T11:52:22.684Z,39.46
2023-04-02T11:55:02.114Z,42.25
2023-04-02T11:57:51.545Z,45.21
2023-04-02T12:00:42.132Z,42.34
2023-04-02T12:03:29.776Z,41.41
2023-04-02T12:06:06.863Z,41.32
2023-04-02T12:08:57.028Z,44.38
2023-04-02T12:11:35.106Z,41.77
2023-04-02T12:14:04.501Z,41.67
2023-04-02T12:16:36.434Z,42.76
2023-04-02T12:19:10.189Z,40.57
2023-04-02T12:21:39.025Z,39.29
2023-04-02T12:24:07.776Z,41.10
2023-04-02T12:26:38.445Z,40.19
2023-04-02T12:29:17.750Z,39.97
2023-04-02T12:31:48.731Z,41.06
2023-04-02T12:34:18.978Z,41.10
2023-04-02T12:36:55.087Z,37.98
2023-04-02T12:39:25.847Z,40.78
2023-04-02T12:41:55.342Z,42.02
2023-04-02T12:44:24.940Z,40.91
2023-04-02T12:46:54.852Z,40.62
2023-04-02T12:49:39.216Z,40.47
2023-04-02T12:52:09.854Z,42.08
2023-04-02T12:54:45.011Z,42.82
2023-04-02T12:57:24.315Z,43.40
2023-04-02T12:59:52.743Z,42.68
2023-04-02T13:02:24.176Z,42.90
2023-04-02T13:04:53.960Z,43.71
2023-04-02T13:07:23.739Z,44.30
2023-04-02T13:09:53.314Z,43.10
2023-04-02T13:12:27.046Z,44.08
2023-04-02T13:14:56.709Z,50.34
2023-04-02T13:17:43.692Z,46.43
2023-04-02T13:20:31.900Z,50.37
2023-04-02T13:23:01.352Z,46.28
2023-04-02T13:25:32.035Z,46.85
2023-04-02T13:28:00.002Z,48.19
2023-04-02T13:30:29.352Z,44.71
2023-04-02T13:32:58.768Z,43.47
2023-04-02T13:35:27.248Z,43.98
2023-04-02T13:37:55.185Z,42.59
2023-04-02T13:40:23.022Z,40.74
2023-04-02T13:42:51.066Z,37.44
2023-04-02T13:45:26.743Z,41.00
2023-04-02T13:47:55.030Z,40.96
2023-04-02T13:50:25.196Z,37.39
2023-04-02T13:52:53.339Z,38.55
2023-04-02T13:55:24.171Z,38.26
2023-04-02T13:57:52.276Z,40.97
2023-04-02T14:00:21.293Z,41.19
2023-04-02T14:02:52.874Z,41.58
2023-04-02T14:05:33.106Z,40.31
2023-04-02T14:08:09.032Z,41.23
2023-04-02T14:10:58.594Z,39.65
2023-04-02T14:13:42.795Z,36.74
2023-04-02T14:16:23.748Z,36.50
2023-04-02T14:19:04.192Z,38.67
2023-04-02T14:21:45.959Z,40.57
2023-04-02T14:24:19.638Z,38.34
2023-04-02T14:27:11.745Z,38.79
2023-04-02T14:29:46.779Z,38.72
2023-04-02T14:32:21.900Z,38.93
2023-04-02T14:34:59.345Z,39.17
2023-04-02T14:37:38.435Z,37.03
2023-04-02T14:40:15.749Z,35.87
2023-04-02T14:42:48.809Z,37.53
2023-04-02T14:45:30.870Z,38.69
2023-04-02T14:48:02.104Z,39.82
2023-04-02T14:50:34.946Z,39.93
2023-04-02T14:53:10.329Z,40.21
2023-04-02T14:55:42.493Z,39.91
2023-04-02T14:58:18.051Z,42.02
2023-04-02T15:00:52.669Z,42.31
2023-04-02T15:03:25.010Z,40.94
2023-04-02T15:05:57.019Z,41.65
2023-04-02T15:08:29.645Z,42.14
2023-04-02T15:11:05.839Z,45.08
2023-04-02T15:13:38.915Z,44.04
2023-04-02T15:16:15.624Z,44.98
2023-04-02T15:18:43.751Z,46.79
2023-04-02T15:21:30.382Z,48.63
2023-04-02T15:24:05.371Z,49.69
2023-04-02T15:26:42.920Z,50.14
2023-04-02T15:29:28.747Z,54.88
2023-04-02T15:32:05.766Z,53.14
2023-04-02T15:34:42.844Z,57.37
2023-04-02T15:37:23.169Z,59.20
2023-04-02T15:40:17.120Z,64.24
2023-04-02T15:42:50.969Z,60.78
2023-04-02T15:45:28.129Z,68.85
2023-04-02T15:48:09.865Z,76.66
2023-04-02T15:50:48.192Z,70.85
2023-04-02T15:53:31.799Z,69.72
2023-04-02T15:56:15.786Z,73.34
2023-04-02T15:59:04.152Z,73.93
2023-04-02T16:01:40.814Z,75.43
2023-04-02T16:04:22.288Z,85.21
2023-04-02T16:07:02.764Z,83.93
2023-04-02T16:09:40.769Z,82.56
2023-04-02T16:12:15.815Z,87.58
2023-04-02T16:14:45.962Z,89.22
2023-04-02T16:17:24.830Z,90.97
2023-04-02T16:19:57.758Z,90.63
2023-04-02T16:22:28.354Z,92.07
2023-04-02T16:25:01.595Z,97.88
2023-04-02T16:27:36.891Z,100.00
2023-04-02T16:30:35.176Z,96.79
2023-04-02T16:33:11.381Z,96.98
2023-04-02T16:35:46.437Z,97.75
2023-04-02T16:38:25.777Z,100.00
2023-04-02T16:41:08.312Z,100.00
2023-04-02T16:43:47.034Z,100.00
2023-04-02T16:46:38.134Z,100.00
2023-04-02T16:49:18.698Z,100.00
2023-04-02T16:51:58.022Z,100.00
2023-04-02T16:54:32.389Z,100.00
2023-04-02T16:57:19.853Z,100.00
2023-04-02T17:00:00.623Z,100.00
2023-04-02T17:02:42.200Z,100.00
2023-04-02T17:05:30.343Z,100.00
2023-04-02T17:08:09.824Z,100.00
2023-04-02T17:10:46.872Z,100.00
2023-04-02T17:13:24.082Z,100.00
2023-04-02T17:16:01.078Z,100.00
2023-04-02T17:18:29.000Z,100.00
2023-04-02T17:21:03.261Z,100.00
2023-04-02T17:23:40.559Z,100.00
2023-04-02T17:26:15.830Z,100.00
2023-04-02T17:28:46.039Z,100.00
2023-04-02T17:31:20.031Z,100.00
2023-04-02T17:33:48.076Z,100.00
2023-04-02T17:36:40.961Z,100.00
2023-04-02T17:39:18.665Z,100.00
2023-04-02T17:41:53.776Z,100.00
2023-04-02T17:44:38.849Z,100.00
2023-04-02T17:47:15.590Z,100.00
2023-04-02T17:49:54.464Z,100.00
2023-04-02T17:52:25.771Z,100.00
2023-04-02T17:55:02.564Z,100.00
2023-04-02T17:57:47.731Z,100.00
2023-04-02T18:00:30.479Z,100.00
2023-04-02T18:03:26.308Z,100.00
2023-04-02T18:06:00.038Z,100.00
2023-04-02T18:08:34.286Z,100.00
2023-04-02T18:11:11.183Z,100.00
2023-04-02T18:13:43.038Z,100.00
2023-04-02T18:16:27.503Z,100.00
2023-04-02T18:19:06.015Z,100.00
2023-04-02T18:21:43.103Z,100.00
2023-04-02T18:24:33.489Z,100.00
2023-04-02T18:27:17.191Z,100.00
2023-04-02T18:29:54.573Z,100.00
2023-04-02T18:32:39.957Z,100.00
2023-04-02T18:35:18.848Z,100.00
2023-04-02T18:37:58.937Z,100.00
2023-04-02T18:40:38.646Z,100.00
2023-04-02T18:43:17.224Z,100.00
2023-04-02T18:45:55.543Z,100.00
2023-04-02T18:48:35.249Z,100.00
2023-04-02T18:51:06.952Z,100.00
2023-04-02T18:53:35.873Z,100.00
2023-04-02T18:56:05.904Z,100.00
2023-04-02T18:58:41.811Z,100.00
2023-04-02T19:01:15.019Z,100.00
2023-04-02T19:03:48.178Z,100.00
2023-04-02T19:06:21.684Z,100.00
2023-04-02T19:08:52.476Z,100.00
2023-04-02T19:11:28.546Z,100.00
2023-04-02T19:13:56.429Z,100.00
2023-04-02T19:16:38.967Z,100.00
2023-04-02T19:19:16.936Z,100.00
2023-04-02T19:22:01.895Z,100.00
2023-04-02T19:24:44.353Z,100.00
2023-04-02T19:27:20.604Z,100.00
2023-04-02T19:30:01.351Z,100.00
2023-04-02T19:32:38.512Z,100.00
2023-04-02T19:35:17.833Z,100.00
2023-04-02T19:37:58.225Z,100.00
2023-04-02T19:40:38.863Z,100.00
2023-04-02T19:43:10.106Z,100.00
2023-04-02T19:45:40.882Z,100.00
2023-04-02T19:48:15.918Z,100.00
2023-04-02T19:50:44.370Z,100.00
2023-04-02T19:53:14.198Z,100.00
2023-04-02T19:55:42.415Z,100.00
2023-04-02T19:58:19.870Z,100.00
2023-04-02T20:00:48.159Z,100.00
2023-04-02T20:03:16.017Z,100.00
2023-04-02T20:05:43.858Z,100.00
2023-04-02T20:08:13.046Z,100.00
2023-04-02T20:10:41.557Z,100.00
2023-04-02T20:13:10.474Z,100.00
2023-04-02T20:15:39.746Z,100.00
2023-04-02T20:18:07.910Z,100.00
2023-04-02T20:20:35.949Z,100.00
2023-04-02T20:23:04.260Z,100.00
2023-04-02T20:25:33.629Z,100.00
2023-04-02T20:28:03.750Z,100.00
2023-04-02T20:30:32.422Z,100.00
2023-04-02T20:33:01.144Z,100.00
2023-04-02T20:35:30.956Z,100.00
2023-04-02T20:37:58.771Z,100.00
2023-04-02T20:40:26.621Z,100.00
2023-04-02T20:42:55.940Z,100.00
2023-04-02T20:45:24.422Z,100.00
2023-04-02T20:47:52.198Z,100.00
2023-04-02T20:50:20.429Z,100.00
2023-04-02T20:52:48.233Z,100.00
2023-04-02T20:55:16.151Z,100.00
2023-04-02T20:57:44.146Z,100.00
2023-04-02T21:00:14.677Z,100.00
2023-04-02T21:02:42.506Z,100.00
2023-04-02T21:05:10.607Z,100.00
2023-04-02T21:07:38.471Z,100.00
2023-04-02T21:10:06.894Z,100.00
2023-04-02T21:12:34.648Z,100.00
2023-04-02T21:15:03.003Z,100.00
2023-04-02T21:17:32.357Z,100.00
2023-04-02T21:20:00.176Z,100.00
2023-04-02T21:22:28.024Z,100.00
2023-04-02T21:24:55.945Z,100.00
2023-04-02T21:27:25.936Z,100.00
2023-04-02T21:29:54.043Z,100.00
2023-04-02T21:32:22.319Z,100.00
2023-04-02T21:34:51.697Z,100.00
2023-04-02T21:37:19.503Z,100.00
2023-04-02T21:39:47.313Z,100.00
2023-04-02T21:42:15.299Z,100.00
2023-04-02T21:44:43.316Z,100.00
2023-04-02T21:47:11.228Z,100.00
2023-04-02T21:49:39.077Z,100.00
2023-04-02T21:52:08.234Z,100.00
2023-04-02T21:54:36.038Z,100.00
2023-04-02T21:57:03.892Z,100.00
2023-04-02T21:59:31.803Z,100.00
2023-04-02T22:01:59.686Z,100.00
2023-04-02T22:04:28.477Z,100.00
2023-04-02T22:06:56.381Z,100.00
2023-04-02T22:09:26.817Z,100.00
2023-04-02T22:11:56.118Z,100.00
2023-04-02T22:14:24.252Z,100.00
2023-04-02T22:16:52.941Z,100.00
2023-04-02T22:19:21.272Z,100.00
2023-04-02T22:21:49.183Z,100.00
2023-04-02T22:24:19.303Z,100.00
2023-04-02T22:26:48.713Z,100.00
2023-04-02T22:29:17.081Z,100.00
2023-04-02T22:31:45.567Z,100.00
2023-04-02T22:34:13.482Z,100.00
2023-04-02T22:36:41.496Z,100.00
2023-04-02T22:39:11.945Z,100.00
2023-04-02T22:41:39.797Z,100.00
2023-04-02T22:44:08.973Z,100.00
2023-04-02T22:46:37.182Z,100.00
2023-04-02T22:49:05.308Z,100.00
2023-04-02T22:51:33.149Z,100.00
2023-04-02T22:54:01.078Z,100.00
2023-04-02T22:56:32.038Z,100.00
2023-04-02T22:59:00.751Z,100.00
2023-04-02T23:01:32.144Z,100.00
2023-04-02T23:04:00.083Z,100.00
2023-04-02T23:06:29.377Z,100.00
2023-04-02T23:08:57.206Z,100.00
2023-04-02T23:11:27.389Z,100.00
2023-04-02T23:13:57.925Z,100.00
2023-04-02T23:16:28.222Z,100.00
2023-04-02T23:18:58.507Z,100.00
2023-04-02T23:21:26.920Z,100.00
2023-04-02T23:23:55.122Z,100.00
2023-04-02T23:26:24.550Z,100.00
2023-04-02T23:28:52.497Z,100.00
2023-04-02T23:31:22.100Z,100.00
2023-04-02T23:33:50.543Z,100.00
2023-04-02T23:36:22.924Z,100.00
2023-04-02T23:38:55.286Z,100.00
2023-04-02T23:41:27.115Z,100.00
2023-04-02T23:43:55.869Z,100.00
2023-04-02T23:46:23.776Z,100.00
2023-04-02T23:48:51.804Z,100.00
2023-04-02T23:51:21.024Z,100.00
2023-04-02T23:53:49.340Z,100.00
2023-04-02T23:56:17.374Z,100.00
2023-04-02T23:58:45.580Z,100.00
